Time;durP1;ratioP1;P1;durP2;ratioP2;P2;SDS_P1;SDS_P2;PMS_P1;PMS_P2;Temp;Humidity;BMP_temperature;BMP_pressure;BME280_temperature;BME280_humidity;BME280_pressure;Samples;Min_cycle;Max_cycle;Signal;HPM_P1;HPM_P2
2024/01/16 00:02:16;;;;;;;17.33;10.40;;;2.10;1.00;;;;;;4998142;28;20244;-83
2024/01/16 00:04:41;;;;;;;20.30;10.93;;;2.10;1.00;;;;;;4996294;28;20741;-83
2024/01/16 00:07:07;;;;;;;21.30;12.97;;;2.10;1.00;;;;;;4999295;28;20455;-81
2024/01/16 00:09:34;;;;;;;20.30;11.73;;;2.10;1.00;;;;;;4999935;28;20275;-82
2024/01/16 00:12:00;;;;;;;26.65;11.40;;;2.10;1.00;;;;;;4999606;28;20207;-82
2024/01/16 00:14:25;;;;;;;18.83;11.25;;;2.10;1.00;;;;;;5002460;28;20261;-82
2024/01/16 00:16:51;;;;;;;19.40;11.30;;;2.10;1.00;;;;;;5003254;28;20212;-80
2024/01/16 00:19:16;;;;;;;18.97;10.90;;;2.00;1.00;;;;;;5005902;28;20712;-82
2024/01/16 00:21:46;;;;;;;26.60;9.83;;;2.00;1.00;;;;;;5006027;28;20183;-82
2024/01/16 00:24:12;;;;;;;18.70;10.50;;;2.00;1.00;;;;;;5008155;28;20182;-82
2024/01/16 00:26:37;;;;;;;23.50;9.10;;;2.00;1.00;;;;;;5006993;28;20278;-83
2024/01/16 00:29:03;;;;;;;12.30;9.00;;;2.00;1.00;;;;;;5011188;28;20880;-82
2024/01/16 00:31:28;;;;;;;16.30;8.83;;;2.10;1.00;;;;;;5008996;28;20188;-82
2024/01/16 00:33:54;;;;;;;14.70;8.87;;;2.10;1.00;;;;;;5007003;28;20262;-83
2024/01/16 00:36:19;;;;;;;12.23;9.33;;;2.10;1.00;;;;;;5006658;28;20207;-82
2024/01/16 00:38:46;;;;;;;17.20;8.73;;;2.10;1.00;;;;;;5005669;28;20565;-82
2024/01/16 00:41:14;;;;;;;16.77;9.32;;;2.10;1.00;;;;;;5004851;28;20207;-82
2024/01/16 00:43:39;;;;;;;19.98;8.25;;;2.10;1.00;;;;;;5000873;28;20242;-80
2024/01/16 00:46:05;;;;;;;17.93;8.00;;;2.10;1.00;;;;;;5003853;28;20195;-83
2024/01/16 00:48:30;;;;;;;23.10;10.23;;;2.10;1.00;;;;;;5006132;28;20183;-82
2024/01/16 00:50:56;;;;;;;14.73;8.50;;;2.10;1.00;;;;;;5000630;28;20195;-82
2024/01/16 00:53:21;;;;;;;20.00;9.80;;;2.10;1.00;;;;;;4995484;28;20217;-80
2024/01/16 00:55:47;;;;;;;16.90;8.53;;;2.10;1.00;;;;;;5014048;28;20183;-83
2024/01/16 00:58:12;;;;;;;21.33;9.47;;;2.10;1.00;;;;;;4998106;28;20214;-81
2024/01/16 01:00:38;;;;;;;15.63;9.93;;;2.10;1.00;;;;;;4999594;28;20214;-82
2024/01/16 01:03:04;;;;;;;15.57;10.77;;;2.00;1.00;;;;;;5007613;28;20197;-83
2024/01/16 01:05:30;;;;;;;13.50;9.33;;;2.00;1.00;;;;;;5003679;28;20191;-82
2024/01/16 01:07:56;;;;;;;14.20;10.67;;;2.00;1.00;;;;;;4995309;28;20466;-82
2024/01/16 01:10:21;;;;;;;17.80;11.93;;;2.00;1.00;;;;;;5001584;28;20203;-81
2024/01/16 01:12:47;;;;;;;19.97;12.00;;;2.00;1.00;;;;;;5002971;28;20956;-83
2024/01/16 01:15:13;;;;;;;20.17;10.50;;;2.00;1.00;;;;;;5005389;28;20189;-83
2024/01/16 01:17:39;;;;;;;17.27;9.82;;;2.00;1.00;;;;;;5002521;28;20200;-83
2024/01/16 01:20:06;;;;;;;16.67;10.33;;;2.00;1.00;;;;;;4999470;28;20218;-82
2024/01/16 01:22:32;;;;;;;22.45;10.25;;;2.00;1.00;;;;;;5002661;28;20443;-82
2024/01/16 01:24:57;;;;;;;19.30;9.03;;;2.00;1.00;;;;;;5005617;28;20190;-83
2024/01/16 01:27:23;;;;;;;18.27;9.13;;;1.90;1.00;;;;;;5001771;28;20219;-82
2024/01/16 01:29:48;;;;;;;22.53;9.03;;;1.90;1.00;;;;;;4999347;28;20275;-82
2024/01/16 01:32:14;;;;;;;15.00;8.27;;;1.90;1.00;;;;;;5008262;28;20319;-83
2024/01/16 01:34:41;;;;;;;16.13;7.30;;;1.90;1.00;;;;;;5019879;28;20192;-82
2024/01/16 01:37:07;;;;;;;13.30;8.07;;;1.90;1.00;;;;;;5009753;28;20295;-82
2024/01/16 01:39:33;;;;;;;16.23;7.13;;;1.90;1.00;;;;;;5010895;28;20286;-83
2024/01/16 01:41:58;;;;;;;17.30;6.33;;;1.90;1.00;;;;;;5024369;28;20188;-83
2024/01/16 01:44:24;;;;;;;15.43;6.33;;;1.90;1.00;;;;;;5006696;28;20187;-82
2024/01/16 01:46:51;;;;;;;11.05;6.60;;;1.90;1.00;;;;;;5001504;28;20192;-83
2024/01/16 01:49:16;;;;;;;13.23;7.38;;;1.90;1.00;;;;;;5002820;28;20253;-82
2024/01/16 01:51:43;;;;;;;12.07;8.20;;;1.90;1.00;;;;;;4999652;28;20188;-82
2024/01/16 01:54:09;;;;;;;13.30;7.50;;;2.00;1.00;;;;;;4998931;28;20443;-80
2024/01/16 01:56:35;;;;;;;15.80;8.00;;;2.00;1.00;;;;;;5012526;28;20637;-83
2024/01/16 01:59:02;;;;;;;15.60;7.93;;;2.00;1.00;;;;;;5006704;28;20806;-82
2024/01/16 02:01:31;;;;;;;17.30;8.52;;;2.00;1.00;;;;;;4999376;28;20194;-83
2024/01/16 02:03:59;;;;;;;16.50;8.32;;;2.00;1.00;;;;;;5012524;28;20211;-83
2024/01/16 02:06:24;;;;;;;14.68;7.18;;;2.00;1.00;;;;;;5008226;28;20310;-83
2024/01/16 02:08:51;;;;;;;19.23;9.30;;;1.90;1.00;;;;;;4998262;28;25155;-83
2024/01/16 02:11:16;;;;;;;16.70;8.52;;;1.90;1.00;;;;;;5003044;28;21102;-82
2024/01/16 02:13:42;;;;;;;24.30;10.50;;;1.90;1.00;;;;;;5005656;28;20249;-83
2024/01/16 02:16:18;;;;;;;28.40;8.90;;;1.90;1.00;;;;;;5010881;28;20241;-83
2024/01/16 02:18:44;;;;;;;16.63;9.02;;;1.90;1.00;;;;;;5004781;28;20295;-83
2024/01/16 02:21:10;;;;;;;19.53;10.10;;;1.90;1.00;;;;;;5008114;28;20722;-83
2024/01/16 02:23:36;;;;;;;17.75;9.57;;;1.90;1.00;;;;;;5000070;28;20669;-83
2024/01/16 02:26:03;;;;;;;16.53;10.30;;;1.90;1.00;;;;;;4998908;28;20194;-82
2024/01/16 02:28:29;;;;;;;19.05;10.68;;;1.90;1.00;;;;;;5004684;28;20187;-82
2024/01/16 02:30:54;;;;;;;20.33;11.17;;;1.90;1.00;;;;;;5006619;28;20194;-83
2024/01/16 02:33:19;;;;;;;21.03;11.73;;;1.90;1.00;;;;;;5001831;28;20451;-83
2024/01/16 02:35:45;;;;;;;26.00;11.03;;;1.90;1.00;;;;;;4998954;28;20885;-81
2024/01/16 02:38:11;;;;;;;21.00;13.00;;;1.90;1.00;;;;;;5004845;28;20216;-82
2024/01/16 02:40:36;;;;;;;22.30;11.23;;;1.80;1.00;;;;;;5013078;28;20230;-82
2024/01/16 02:43:02;;;;;;;20.73;11.27;;;1.80;1.00;;;;;;5010262;28;20211;-79
2024/01/16 02:45:27;;;;;;;22.60;12.87;;;1.90;1.00;;;;;;5005113;28;20270;-82
2024/01/16 02:47:53;;;;;;;23.93;11.50;;;1.80;1.00;;;;;;4998505;28;20833;-83
2024/01/16 02:50:20;;;;;;;25.40;12.53;;;1.80;1.00;;;;;;5003836;28;20187;-83
2024/01/16 02:52:45;;;;;;;19.25;11.55;;;1.80;1.00;;;;;;5010445;28;20193;-81
2024/01/16 02:55:11;;;;;;;23.97;12.13;;;1.80;1.00;;;;;;5008340;28;20796;-82
2024/01/16 02:57:36;;;;;;;20.00;13.90;;;1.80;1.00;;;;;;5009078;28;20575;-83
2024/01/16 03:00:02;;;;;;;23.17;13.23;;;1.80;1.00;;;;;;5013390;28;20214;-82
2024/01/16 03:02:28;;;;;;;22.50;12.60;;;1.80;1.00;;;;;;5011129;28;20560;-83
2024/01/16 03:04:54;;;;;;;19.63;13.30;;;1.80;1.00;;;;;;5004044;28;20266;-83
2024/01/16 03:07:20;;;;;;;17.52;13.35;;;1.80;1.00;;;;;;5014907;28;20464;-82
2024/01/16 03:09:45;;;;;;;22.50;14.63;;;1.80;1.00;;;;;;5010091;28;20255;-81
2024/01/16 03:12:11;;;;;;;28.03;14.70;;;1.80;1.00;;;;;;5012001;28;20199;-82
2024/01/16 03:14:38;;;;;;;29.90;14.60;;;1.80;1.00;;;;;;5011770;28;20191;-84
2024/01/16 03:17:04;;;;;;;24.27;14.70;;;1.80;1.00;;;;;;5009032;28;20213;-80
2024/01/16 03:19:30;;;;;;;24.80;14.83;;;1.70;1.00;;;;;;5009197;28;20203;-80
2024/01/16 03:21:55;;;;;;;25.80;15.60;;;1.70;1.00;;;;;;5007492;28;20194;-81
2024/01/16 03:24:21;;;;;;;28.23;16.27;;;1.70;1.00;;;;;;5003856;28;20195;-83
2024/01/16 03:26:46;;;;;;;30.63;16.27;;;1.70;1.00;;;;;;5010646;28;20206;-82
2024/01/16 03:29:12;;;;;;;45.40;15.63;;;1.70;1.00;;;;;;5010817;28;20184;-81
2024/01/16 03:31:37;;;;;;;25.80;15.13;;;1.70;1.00;;;;;;5004407;28;20728;-83
2024/01/16 03:34:03;;;;;;;33.53;15.57;;;1.70;1.00;;;;;;5013685;28;20180;-82
2024/01/16 03:36:28;;;;;;;26.27;15.70;;;1.70;1.00;;;;;;5008112;28;20214;-80
2024/01/16 03:38:54;;;;;;;24.07;14.60;;;1.70;1.00;;;;;;5010237;28;20191;-79
2024/01/16 03:41:19;;;;;;;21.83;13.20;;;1.70;1.00;;;;;;5007660;28;20211;-82
2024/01/16 03:43:45;;;;;;;30.60;16.37;;;1.70;1.00;;;;;;5002675;28;20207;-82
2024/01/16 03:46:11;;;;;;;25.73;14.63;;;1.70;1.00;;;;;;5003337;28;20183;-82
2024/01/16 03:48:37;;;;;;;23.05;13.65;;;1.70;1.00;;;;;;5002464;28;20195;-82
2024/01/16 03:51:02;;;;;;;31.87;13.67;;;1.70;1.00;;;;;;4998292;28;20191;-81
2024/01/16 03:53:28;;;;;;;22.70;13.47;;;1.70;1.00;;;;;;4993280;28;20191;-82
2024/01/16 03:55:53;;;;;;;23.87;11.57;;;1.70;1.00;;;;;;4997450;28;20241;-81
2024/01/16 03:58:19;;;;;;;27.57;12.27;;;1.70;1.00;;;;;;5014828;23;20227;-85
2024/01/16 04:00:45;;;;;;;26.73;12.70;;;1.70;1.00;;;;;;4992318;28;20342;-84
2024/01/16 04:03:11;;;;;;;27.80;12.60;;;1.70;1.00;;;;;;4994477;28;20196;-85
2024/01/16 04:05:37;;;;;;;27.05;12.85;;;1.70;1.00;;;;;;4991834;28;20445;-84
2024/01/16 04:08:02;;;;;;;34.83;14.23;;;1.60;1.00;;;;;;4983626;28;20204;-84
2024/01/16 04:10:28;;;;;;;25.33;12.67;;;1.60;1.00;;;;;;4994455;28;20799;-85
2024/01/16 04:12:53;;;;;;;28.20;13.10;;;1.60;1.00;;;;;;4988688;28;20191;-83
2024/01/16 04:15:19;;;;;;;21.23;11.70;;;1.60;1.00;;;;;;4989579;28;20196;-85
2024/01/16 04:17:44;;;;;;;24.47;10.40;;;1.60;1.00;;;;;;4991115;28;20246;-85
2024/01/16 04:20:10;;;;;;;28.17;12.37;;;1.60;1.00;;;;;;4989647;28;20286;-85
2024/01/16 04:22:36;;;;;;;20.40;9.95;;;1.60;1.00;;;;;;4987545;28;20234;-84
2024/01/16 04:25:04;;;;;;;26.70;10.50;;;1.60;1.00;;;;;;4993752;28;20188;-84
2024/01/16 04:27:30;;;;;;;26.52;12.68;;;1.60;1.00;;;;;;4988012;28;20579;-85
2024/01/16 04:29:56;;;;;;;21.27;9.98;;;1.60;1.00;;;;;;4988439;28;20274;-85
2024/01/16 04:32:21;;;;;;;19.93;9.87;;;1.60;1.00;;;;;;4994113;28;20262;-85
2024/01/16 04:34:47;;;;;;;18.77;9.90;;;1.50;1.00;;;;;;4989511;28;20191;-85
2024/01/16 04:37:12;;;;;;;21.27;10.03;;;1.50;1.00;;;;;;4989781;28;20318;-83
2024/01/16 04:39:38;;;;;;;22.23;8.30;;;1.50;1.00;;;;;;4990321;28;20222;-83
2024/01/16 04:42:03;;;;;;;23.13;11.00;;;1.50;1.00;;;;;;4998672;28;20179;-84
2024/01/16 04:44:29;;;;;;;24.10;9.27;;;1.50;1.00;;;;;;5002554;28;20207;-83
2024/01/16 04:46:54;;;;;;;11.33;7.43;;;1.50;1.00;;;;;;5006548;28;20463;-86
2024/01/16 04:49:20;;;;;;;14.30;7.67;;;1.50;1.00;;;;;;5007452;28;20920;-85
2024/01/16 04:51:45;;;;;;;15.80;7.40;;;1.50;1.00;;;;;;5007429;28;20186;-84
2024/01/16 04:54:12;;;;;;;13.57;6.47;;;1.50;1.00;;;;;;5004336;28;20719;-84
2024/01/16 04:56:38;;;;;;;17.33;6.87;;;1.50;1.00;;;;;;5007212;28;20211;-84
2024/01/16 04:59:03;;;;;;;12.53;6.00;;;1.50;1.00;;;;;;5002222;28;20439;-85
2024/01/16 05:01:29;;;;;;;14.70;5.73;;;1.40;1.00;;;;;;5004222;28;20241;-85
2024/01/16 05:03:54;;;;;;;11.63;5.37;;;1.40;1.00;;;;;;5007939;28;20708;-85
2024/01/16 05:06:21;;;;;;;10.40;5.77;;;1.40;1.00;;;;;;5006306;28;20188;-84
2024/01/16 05:08:46;;;;;;;22.00;5.00;;;1.40;1.00;;;;;;5006451;28;20191;-85
2024/01/16 05:11:12;;;;;;;12.97;4.90;;;1.40;1.00;;;;;;5004981;28;20193;-86
2024/01/16 05:13:37;;;;;;;11.33;5.80;;;1.40;1.00;;;;;;4997577;28;20195;-84
2024/01/16 05:16:03;;;;;;;14.97;4.57;;;1.40;1.00;;;;;;5001465;28;20188;-85
2024/01/16 05:18:28;;;;;;;27.27;7.50;;;1.40;1.00;;;;;;5010721;28;20214;-84
2024/01/16 05:20:56;;;;;;;12.90;4.57;;;1.40;1.00;;;;;;4998635;28;20476;-84
2024/01/16 05:23:21;;;;;;;12.55;4.85;;;1.40;1.00;;;;;;4996659;28;20182;-85
2024/01/16 05:25:47;;;;;;;10.13;4.40;;;1.40;1.00;;;;;;4995465;28;20558;-84
2024/01/16 05:28:12;;;;;;;9.30;4.77;;;1.30;1.00;;;;;;4999094;28;20971;-84
2024/01/16 05:30:38;;;;;;;13.40;4.33;;;1.30;1.00;;;;;;4995633;28;20252;-84
2024/01/16 05:33:03;;;;;;;9.70;4.50;;;1.30;1.00;;;;;;4990465;28;20186;-83
2024/01/16 05:35:29;;;;;;;11.93;5.77;;;1.30;1.00;;;;;;4993015;28;20190;-84
2024/01/16 05:37:56;;;;;;;10.18;5.10;;;1.30;1.00;;;;;;4993354;28;20204;-84
2024/01/16 05:40:24;;;;;;;12.18;4.85;;;1.30;1.00;;;;;;4998610;28;20750;-84
2024/01/16 05:42:50;;;;;;;17.52;5.10;;;1.30;1.00;;;;;;4993901;28;20683;-84
2024/01/16 05:45:16;;;;;;;9.37;4.10;;;1.20;1.00;;;;;;4993728;28;20188;-85
2024/01/16 05:47:41;;;;;;;8.47;4.23;;;1.20;1.00;;;;;;4999173;28;20238;-84
2024/01/16 05:50:08;;;;;;;8.50;3.87;;;1.20;1.00;;;;;;5003079;28;21768;-82
2024/01/16 05:52:34;;;;;;;12.35;3.75;;;1.30;1.00;;;;;;4999897;28;20180;-84
2024/01/16 05:55:00;;;;;;;9.70;4.40;;;1.20;1.00;;;;;;5002824;28;20224;-83
2024/01/16 05:57:26;;;;;;;16.67;4.17;;;1.20;99.90;;;;;;5003574;28;20515;-83
2024/01/16 05:59:51;;;;;;;9.88;4.03;;;1.20;99.90;;;;;;5003506;28;20670;-84
2024/01/16 06:02:17;;;;;;;9.03;3.23;;;1.20;99.90;;;;;;5004816;28;20247;-83
2024/01/16 06:04:42;;;;;;;7.40;4.40;;;1.20;99.90;;;;;;5005487;28;20271;-85
2024/01/16 06:07:08;;;;;;;14.30;3.17;;;1.20;99.90;;;;;;5004270;28;20212;-83
2024/01/16 06:09:38;;;;;;;4.50;2.57;;;1.20;99.90;;;;;;5008195;28;20192;-84
2024/01/16 06:12:05;;;;;;;10.02;3.47;;;1.20;99.90;;;;;;5001410;28;20183;-85
2024/01/16 06:14:30;;;;;;;11.05;3.83;;;1.20;99.90;;;;;;5004828;28;20211;-84
2024/01/16 06:16:56;;;;;;;11.17;3.63;;;1.20;99.90;;;;;;5007877;28;20320;-85
2024/01/16 06:19:21;;;;;;;11.30;4.10;;;1.20;99.90;;;;;;5007736;28;20199;-83
2024/01/16 06:21:47;;;;;;;15.57;4.30;;;1.20;99.90;;;;;;5002258;28;20180;-83
2024/01/16 06:24:13;;;;;;;6.27;3.00;;;1.20;99.90;;;;;;5000030;28;20187;-84
2024/01/16 06:26:38;;;;;;;9.95;3.85;;;1.20;99.90;;;;;;4996494;28;20224;-84
2024/01/16 06:29:04;;;;;;;8.37;3.77;;;1.20;63.20;;;;;;4999749;28;20711;-84
2024/01/16 06:31:29;;;;;;;14.03;3.73;;;1.20;44.30;;;;;;4996412;28;20179;-85
2024/01/16 06:33:55;;;;;;;15.80;4.43;;;1.20;53.20;;;;;;4996758;28;20187;-85
2024/01/16 06:36:21;;;;;;;8.43;3.17;;;1.20;47.50;;;;;;5005436;28;20728;-83
2024/01/16 06:38:46;;;;;;;7.40;3.90;;;1.20;8.60;;;;;;4998117;28;20246;-84
2024/01/16 06:41:12;;;;;;;11.77;4.37;;;1.20;1.00;;;;;;4996539;28;20222;-84
2024/01/16 06:43:37;;;;;;;7.67;3.60;;;1.20;1.00;;;;;;5002334;28;20184;-86
2024/01/16 06:46:03;;;;;;;6.33;3.23;;;1.20;1.00;;;;;;4995871;28;20176;-84
2024/01/16 06:48:29;;;;;;;9.07;3.40;;;1.20;1.00;;;;;;4995922;28;20208;-84
2024/01/16 06:50:54;;;;;;;11.17;3.40;;;1.20;1.00;;;;;;4995049;28;20447;-85
2024/01/16 06:53:20;;;;;;;12.40;3.47;;;1.20;1.00;;;;;;5000777;28;20780;-84
2024/01/16 06:55:45;;;;;;;6.47;3.77;;;1.20;1.00;;;;;;4997198;28;20196;-85
2024/01/16 06:58:11;;;;;;;8.17;3.80;;;1.20;99.90;;;;;;4992288;28;20254;-84
2024/01/16 07:00:36;;;;;;;10.53;3.30;;;1.20;99.90;;;;;;4999179;28;20234;-85
2024/01/16 07:03:02;;;;;;;9.60;3.93;;;1.20;99.90;;;;;;4992165;28;20686;-85
2024/01/16 07:05:29;;;;;;;7.10;3.17;;;1.20;87.00;;;;;;5004062;28;20201;-85
2024/01/16 07:07:55;;;;;;;17.33;4.00;;;1.20;1.00;;;;;;5005666;28;20576;-83
2024/01/16 07:10:22;;;;;;;10.00;3.70;;;1.10;1.00;;;;;;5005045;28;20192;-84
2024/01/16 07:12:49;;;;;;;7.53;3.95;;;1.20;1.00;;;;;;4998675;28;20191;-85
2024/01/16 07:15:14;;;;;;;6.90;3.30;;;1.10;99.90;;;;;;4996830;28;20235;-84
2024/01/16 07:17:40;;;;;;;7.70;3.53;;;1.10;99.90;;;;;;5002478;28;20231;-85
2024/01/16 07:20:07;;;;;;;11.70;4.27;;;1.00;99.90;;;;;;4998762;28;20203;-86
2024/01/16 07:22:34;;;;;;;8.13;3.95;;;1.00;99.90;;;;;;4996070;28;20238;-86
2024/01/16 07:24:59;;;;;;;11.18;4.60;;;1.00;99.90;;;;;;4992708;28;20188;-86
2024/01/16 07:27:25;;;;;;;7.03;3.77;;;0.90;99.90;;;;;;4993011;28;20199;-83
2024/01/16 07:29:51;;;;;;;14.83;3.63;;;0.90;1.00;;;;;;4996043;28;20434;-84
2024/01/16 07:32:16;;;;;;;11.60;3.93;;;1.00;1.00;;;;;;5009954;28;20504;-84
2024/01/16 07:34:42;;;;;;;10.93;4.03;;;1.00;1.00;;;;;;5005169;28;20191;-82
2024/01/16 07:37:07;;;;;;;13.43;4.97;;;1.10;99.90;;;;;;4999764;28;20196;-84
2024/01/16 07:39:33;;;;;;;12.67;4.70;;;1.10;1.00;;;;;;5000902;28;20293;-83
2024/01/16 07:41:59;;;;;;;14.93;4.60;;;1.10;99.90;;;;;;4993630;28;20199;-81
2024/01/16 07:44:24;;;;;;;13.57;5.50;;;1.10;1.00;;;;;;4990445;28;20180;-83
2024/01/16 07:46:50;;;;;;;13.43;4.90;;;1.10;99.90;;;;;;4990089;28;20254;-83
2024/01/16 07:49:16;;;;;;;17.43;5.67;;;1.10;99.90;;;;;;4997824;28;20206;-83
2024/01/16 07:51:42;;;;;;;12.40;4.63;;;1.20;99.90;;;;;;5002331;28;20229;-84
2024/01/16 07:54:09;;;;;;;10.47;5.00;;;1.20;1.00;;;;;;4999340;28;20187;-86
2024/01/16 07:56:36;;;;;;;11.98;4.65;;;1.20;1.00;;;;;;4994604;28;20263;-86
2024/01/16 07:59:02;;;;;;;10.88;5.50;;;1.20;99.90;;;;;;5001976;28;20187;-85
2024/01/16 08:01:32;;;;;;;10.35;4.85;;;1.30;17.50;;;;;;4998200;28;20210;-86
2024/01/16 08:03:57;;;;;;;14.55;5.13;;;1.40;1.00;;;;;;4998234;28;20183;-84
2024/01/16 08:06:23;;;;;;;12.03;5.27;;;1.50;1.00;;;;;;5006297;28;20672;-83
2024/01/16 08:08:49;;;;;;;11.50;4.60;;;1.70;1.00;;;;;;5004888;28;20308;-85
2024/01/16 08:11:16;;;;;;;8.98;4.85;;;1.80;1.00;;;;;;4994909;28;20276;-83
2024/01/16 08:13:41;;;;;;;17.33;4.40;;;2.00;99.90;;;;;;5005900;28;20183;-85
2024/01/16 08:16:07;;;;;;;15.00;4.57;;;2.20;99.90;;;;;;5000349;28;20194;-83
2024/01/16 08:18:34;;;;;;;9.95;4.20;;;2.30;1.00;;;;;;5000537;28;20212;-86
2024/01/16 08:20:59;;;;;;;5.75;4.20;;;2.40;1.00;;;;;;4999359;28;20235;-84
2024/01/16 08:23:25;;;;;;;6.50;4.50;;;2.50;1.00;;;;;;5002354;28;20188;-86
2024/01/16 08:25:51;;;;;;;14.60;6.60;;;2.70;1.00;;;;;;5002157;28;20188;-85
2024/01/16 08:28:17;;;;;;;12.10;4.13;;;3.00;99.90;;;;;;4996245;28;20196;-84
2024/01/16 08:30:43;;;;;;;9.63;4.80;;;3.20;99.90;;;;;;4997344;28;20246;-85
2024/01/16 08:33:09;;;;;;;17.90;5.70;;;3.60;99.90;;;;;;5003250;28;20852;-84
2024/01/16 08:35:34;;;;;;;10.60;5.10;;;3.90;8.70;;;;;;4994894;28;20208;-83
2024/01/16 08:38:00;;;;;;;10.90;4.50;;;4.20;1.00;;;;;;5004989;28;20242;-84
2024/01/16 08:40:26;;;;;;;16.27;4.30;;;4.20;1.00;;;;;;5001878;28;20268;-84
2024/01/16 08:42:54;;;;;;;12.83;4.30;;;4.20;1.00;;;;;;4999575;28;20713;-85
2024/01/16 08:45:20;;;;;;;13.02;5.20;;;4.50;1.00;;;;;;4996645;28;20223;-86
2024/01/16 08:47:46;;;;;;;12.20;4.93;;;4.90;1.00;;;;;;4998922;28;20210;-86
2024/01/16 08:50:12;;;;;;;11.90;4.40;;;5.40;1.00;;;;;;4999466;28;20183;-83
2024/01/16 08:52:37;;;;;;;17.17;4.87;;;5.60;1.00;;;;;;5000206;28;20445;-85
2024/01/16 08:55:04;;;;;;;10.10;5.00;;;5.50;1.00;;;;;;5006068;28;20195;-84
2024/01/16 08:57:29;;;;;;;11.95;4.63;;;5.20;1.00;;;;;;4996714;28;20754;-83
2024/01/16 08:59:55;;;;;;;19.20;4.90;;;5.00;1.00;;;;;;4998314;28;20215;-84
2024/01/16 09:02:21;;;;;;;7.77;4.10;;;4.90;1.00;;;;;;5002074;28;20192;-82
2024/01/16 09:04:47;;;;;;;10.43;5.05;;;4.60;1.00;;;;;;5006189;28;20207;-85
2024/01/16 09:07:15;;;;;;;11.85;4.65;;;4.50;1.00;;;;;;4996627;28;20207;-84
2024/01/16 09:09:42;;;;;;;13.10;4.22;;;4.40;1.00;;;;;;5002820;28;20258;-83
2024/01/16 09:12:10;;;;;;;12.02;4.75;;;4.30;1.00;;;;;;5004864;28;20192;-84
2024/01/16 09:14:36;;;;;;;17.40;5.25;;;4.20;1.00;;;;;;5000358;28;20187;-82
2024/01/16 09:17:03;;;;;;;11.43;5.03;;;4.10;1.00;;;;;;5006087;28;20238;-87
2024/01/16 09:19:29;;;;;;;10.50;4.10;;;4.00;1.00;;;;;;5005764;28;20583;-82
2024/01/16 09:21:55;;;;;;;17.23;4.90;;;4.00;1.00;;;;;;5000867;28;20278;-84
2024/01/16 09:24:20;;;;;;;8.20;5.23;;;3.80;1.00;;;;;;5000413;28;20201;-83
2024/01/16 09:26:46;;;;;;;11.47;4.80;;;3.70;1.00;;;;;;4997350;28;20195;-86
2024/01/16 09:29:12;;;;;;;10.93;5.17;;;3.70;1.00;;;;;;5006049;28;20188;-84
2024/01/16 09:31:38;;;;;;;11.63;6.13;;;3.70;1.00;;;;;;5003947;28;20195;-83
2024/01/16 09:34:04;;;;;;;13.20;5.50;;;3.80;1.00;;;;;;5002114;28;20215;-84
2024/01/16 09:36:30;;;;;;;16.38;4.88;;;3.80;1.00;;;;;;5015201;28;20605;-83
2024/01/16 09:38:55;;;;;;;9.93;4.50;;;4.10;1.00;;;;;;4999646;28;20275;-84
2024/01/16 09:41:21;;;;;;;10.33;5.00;;;4.00;1.00;;;;;;5003003;28;20266;-84
2024/01/16 09:43:47;;;;;;;15.43;5.50;;;4.10;1.00;;;;;;5004173;28;20286;-82
2024/01/16 09:46:16;;;;;;;11.57;4.65;;;4.10;1.00;;;;;;5008147;28;20184;-85
2024/01/16 09:48:44;;;;;;;10.25;4.80;;;4.10;1.00;;;;;;5011938;28;20534;-84
2024/01/16 09:51:12;;;;;;;9.30;4.72;;;4.10;1.00;;;;;;5007462;28;20190;-84
2024/01/16 09:53:38;;;;;;;8.55;5.43;;;4.20;1.00;;;;;;5014191;28;20187;-85
2024/01/16 09:56:07;;;;;;;7.57;4.30;;;4.20;1.00;;;;;;5011929;28;20202;-87
2024/01/16 09:58:36;;;;;;;6.97;5.13;;;4.40;1.00;;;;;;5034062;22;20237;-84
2024/01/16 10:01:01;;;;;;;8.85;4.95;;;4.40;1.00;;;;;;5033256;28;20644;-83
2024/01/16 10:03:30;;;;;;;11.43;5.23;;;4.70;1.00;;;;;;5034894;28;20191;-82
2024/01/16 10:05:56;;;;;;;9.25;4.90;;;4.90;1.00;;;;;;5031800;28;20673;-82
2024/01/16 10:08:22;;;;;;;9.50;4.93;;;5.00;1.00;;;;;;5031162;28;20232;-83
2024/01/16 10:10:47;;;;;;;6.63;4.40;;;5.30;1.00;;;;;;5030854;28;20209;-82
2024/01/16 10:13:14;;;;;;;11.00;4.20;;;5.60;1.00;;;;;;5025416;28;20191;-82
2024/01/16 10:15:40;;;;;;;13.80;4.50;;;5.60;1.00;;;;;;5032913;28;20183;-82
2024/01/16 10:18:21;;;;;;;12.00;4.80;;;5.50;1.00;;;;;;5035344;28;20228;-84
2024/01/16 10:20:46;;;;;;;14.35;4.72;;;5.40;1.00;;;;;;5029741;28;20255;-82
2024/01/16 10:23:29;;;;;;;17.20;5.20;;;5.30;1.00;;;;;;5033493;28;20194;-82
2024/01/16 10:26:07;;;;;;;11.48;4.95;;;5.10;1.00;;;;;;5029863;28;20859;-84
2024/01/16 10:28:34;;;;;;;11.43;4.40;;;5.00;1.00;;;;;;5032149;28;20207;-82
2024/01/16 10:31:08;;;;;;;8.43;4.57;;;5.30;1.00;;;;;;5035037;28;20225;-82
2024/01/16 10:33:33;;;;;;;6.40;4.15;;;5.50;1.00;;;;;;5035087;28;20294;-83
2024/01/16 10:36:12;;;;;;;10.83;5.40;;;5.60;1.00;;;;;;5032461;28;20210;-84
2024/01/16 10:38:43;;;;;;;7.70;4.68;;;5.50;1.00;;;;;;5028349;28;20271;-81
2024/01/16 10:41:10;;;;;;;8.52;5.07;;;5.60;1.00;;;;;;5034890;28;20210;-82
2024/01/16 10:43:36;;;;;;;13.07;5.35;;;5.50;99.90;;;;;;5026972;28;20205;-82
2024/01/16 10:46:09;;;;;;;10.00;5.25;;;5.30;99.90;;;;;;5036680;28;20190;-82
2024/01/16 10:48:35;;;;;;;9.75;4.70;;;5.10;99.90;;;;;;5035966;28;20195;-82
2024/01/16 10:51:02;;;;;;;8.90;4.43;;;5.00;99.90;;;;;;5033380;28;20186;-83
2024/01/16 10:53:32;;;;;;;6.88;4.57;;;4.80;99.90;;;;;;5030279;28;20740;-83
2024/01/16 10:56:01;;;;;;;11.95;5.10;;;4.60;99.90;;;;;;5033726;28;20269;-82
2024/01/16 10:58:27;;;;;;;14.95;5.15;;;4.50;1.00;;;;;;5039063;28;20218;-83
2024/01/16 11:00:56;;;;;;;9.27;4.55;;;4.40;1.00;;;;;;5045646;28;20213;-82
2024/01/16 11:03:32;;;;;;;8.05;5.05;;;4.30;1.00;;;;;;5043391;28;20193;-84
2024/01/16 11:05:59;;;;;;;13.10;5.00;;;4.30;1.00;;;;;;5031201;28;20187;-84
2024/01/16 11:08:30;;;;;;;5.82;3.88;;;4.20;1.00;;;;;;5032994;28;20286;-84
2024/01/16 11:10:57;;;;;;;11.20;4.70;;;4.20;1.00;;;;;;5037839;28;20205;-82
2024/01/16 11:13:24;;;;;;;6.97;5.00;;;4.20;1.00;;;;;;5040167;28;20186;-85
2024/01/16 11:15:50;;;;;;;11.93;4.53;;;4.20;1.00;;;;;;5042797;28;20218;-85
2024/01/16 11:18:17;;;;;;;13.63;5.00;;;4.20;1.00;;;;;;5037804;28;20719;-85
2024/01/16 11:20:44;;;;;;;11.52;5.65;;;4.20;1.00;;;;;;5036853;28;20210;-86
2024/01/16 11:23:11;;;;;;;6.65;3.97;;;4.20;1.00;;;;;;5035249;28;20703;-87
2024/01/16 11:25:37;;;;;;;10.25;4.93;;;4.20;1.00;;;;;;5044178;28;20179;-86
2024/01/16 11:28:11;;;;;;;15.20;5.43;;;4.30;1.00;;;;;;5041176;28;20221;-84
2024/01/16 11:30:37;;;;;;;6.17;4.90;;;4.80;1.00;;;;;;5040277;28;20192;-85
2024/01/16 11:33:04;;;;;;;8.43;4.73;;;5.90;1.00;;;;;;5039851;28;20438;-85
2024/01/16 11:35:38;;;;;;;9.80;5.13;;;7.10;99.90;;;;;;5041510;28;20475;-85
2024/01/16 11:38:14;;;;;;;13.93;5.20;;;8.60;99.90;;;;;;5040479;28;20990;-85
2024/01/16 11:40:39;;;;;;;15.17;5.27;;;9.80;99.90;;;;;;5037627;28;20463;-83
2024/01/16 11:43:33;;;;;;;9.33;4.80;;;10.60;99.90;;;;;;5044681;28;20504;-85
2024/01/16 11:46:00;;;;;;;10.77;5.20;;;11.40;99.90;;;;;;5037274;28;20186;-85
2024/01/16 11:48:25;;;;;;;8.50;5.10;;;12.00;99.90;;;;;;5046678;28;20457;-85
2024/01/16 11:50:52;;;;;;;11.60;4.67;;;12.50;99.90;;;;;;5048479;28;20441;-85
2024/01/16 11:53:30;;;;;;;10.47;4.53;;;13.10;99.90;;;;;;5038973;28;20185;-85
2024/01/16 11:56:14;;;;;;;8.80;4.30;;;13.80;99.90;;;;;;5033046;28;20425;-86
2024/01/16 11:59:01;;;;;;;13.80;5.67;;;13.70;99.90;;;;;;5039010;28;20478;-86
2024/01/16 12:01:27;;;;;;;10.80;5.10;;;14.20;99.90;;;;;;5032460;28;21010;-83
2024/01/16 12:04:05;;;;;;;10.83;5.00;;;14.10;99.90;;;;;;5029236;28;20552;-84
2024/01/16 12:06:31;;;;;;;17.30;4.80;;;13.80;99.90;;;;;;5030470;28;20438;-85
2024/01/16 12:09:17;;;;;;;10.37;5.20;;;14.00;99.90;;;;;;5038623;28;20452;-85
2024/01/16 12:11:45;;;;;;;8.63;5.17;;;14.10;99.90;;;;;;5030338;28;20452;-85
2024/01/16 12:14:14;;;;;;;9.60;5.73;;;14.20;99.90;;;;;;5031278;28;20441;-85
2024/01/16 12:16:39;;;;;;;8.27;5.00;;;14.20;99.90;;;;;;5033614;28;20771;-85
2024/01/16 12:19:06;;;;;;;10.40;5.00;;;14.40;99.90;;;;;;5040226;28;20456;-88
2024/01/16 12:21:44;;;;;;;11.07;5.07;;;14.70;99.90;;;;;;5040599;28;20233;-85
2024/01/16 12:24:11;;;;;;;11.30;5.37;;;14.90;99.90;;;;;;5037621;28;20517;-86
2024/01/16 12:26:37;;;;;;;10.10;4.43;;;15.10;99.90;;;;;;5035429;28;20476;-87
2024/01/16 12:29:02;;;;;;;10.97;4.60;;;15.30;99.90;;;;;;5031018;28;20524;-87
2024/01/16 12:31:29;;;;;;;9.90;4.97;;;15.30;99.90;;;;;;5036469;28;20467;-87
2024/01/16 12:34:07;;;;;;;9.77;5.37;;;15.10;99.90;;;;;;5034621;28;20437;-86
2024/01/16 12:36:34;;;;;;;7.80;5.10;;;15.00;99.90;;;;;;5043689;28;20528;-87
2024/01/16 12:38:59;;;;;;;8.23;4.63;;;14.90;99.90;;;;;;5026109;28;20467;-87
2024/01/16 12:41:27;;;;;;;8.90;4.43;;;15.00;99.90;;;;;;5029406;28;20469;-83
2024/01/16 12:43:53;;;;;;;9.30;4.63;;;15.00;99.90;;;;;;5033175;28;20266;-84
2024/01/16 12:46:19;;;;;;;8.50;4.13;;;15.00;99.90;;;;;;5033722;28;20469;-86
2024/01/16 12:48:46;;;;;;;10.73;5.00;;;15.10;99.90;;;;;;5026289;28;20702;-86
2024/01/16 12:51:19;;;;;;;6.90;4.50;;;15.00;99.90;;;;;;5029184;28;20225;-87